sensor_id;sensor_type;location;lat;lon;timestamp;temperature;humidity
10864;DHT22;5485;37.558;126.950;2023-05-03T00:02:14;29.20;1.00
10864;DHT22;5485;37.558;126.950;2023-05-03T00:04:41;29.40;1.00
10864;DHT22;5485;37.558;126.950;2023-05-03T00:07:11;29.20;1.00
10864;DHT22;5485;37.558;126.950;2023-05-03T00:09:38;29.30;1.00
10864;DHT22;5485;37.558;126.950;2023-05-03T00:12:08;28.40;1.00
10864;DHT22;5485;37.558;126.950;2023-05-03T00:14:34;28.50;1.00
10864;DHT22;5485;37.558;126.950;2023-05-03T00:17:04;28.80;1.00
10864;DHT22;5485;37.558;126.950;2023-05-03T00:19:31;28.30;1.00
10864;DHT22;5485;37.558;126.950;2023-05-03T00:22:00;28.70;1.00
10864;DHT22;5485;37.558;126.950;2023-05-03T00:24:27;28.70;1.00
10864;DHT22;5485;37.558;126.950;2023-05-03T00:26:54;29.10;1.00
10864;DHT22;5485;37.558;126.950;2023-05-03T00:29:20;28.70;1.00
10864;DHT22;5485;37.558;126.950;2023-05-03T00:31:48;29.00;1.00
10864;DHT22;5485;37.558;126.950;2023-05-03T00:34:15;29.30;1.00
10864;DHT22;5485;37.558;126.950;2023-05-03T00:36:41;29.70;1.00
10864;DHT22;5485;37.558;126.950;2023-05-03T00:39:08;29.60;1.00
10864;DHT22;5485;37.558;126.950;2023-05-03T00:41:37;29.40;1.00
10864;DHT22;5485;37.558;126.950;2023-05-03T00:44:04;29.30;1.00
10864;DHT22;5485;37.558;126.950;2023-05-03T00:46:34;29.10;1.00
10864;DHT22;5485;37.558;126.950;2023-05-03T00:49:01;29.10;1.00
10864;DHT22;5485;37.558;126.950;2023-05-03T00:51:30;28.70;1.00
10864;DHT22;5485;37.558;126.950;2023-05-03T00:53:57;28.60;1.00
10864;DHT22;5485;37.558;126.950;2023-05-03T00:56:25;28.60;1.00
10864;DHT22;5485;37.558;126.950;2023-05-03T00:58:52;28.60;1.00
10864;DHT22;5485;37.558;126.950;2023-05-03T01:01:19;28.40;1.00
10864;DHT22;5485;37.558;126.950;2023-05-03T01:03:46;28.40;1.00
10864;DHT22;5485;37.558;126.950;2023-05-03T01:09:33;29.00;1.00
10864;DHT22;5485;37.558;126.950;2023-05-03T01:12:29;29.60;1.00
10864;DHT22;5485;37.558;126.950;2023-05-03T01:15:16;29.60;1.00
10864;DHT22;5485;37.558;126.950;2023-05-03T01:18:10;29.90;1.00
10864;DHT22;5485;37.558;126.950;2023-05-03T01:20:42;30.10;1.00
10864;DHT22;5485;37.558;126.950;2023-05-03T01:23:35;30.30;1.00
10864;DHT22;5485;37.558;126.950;2023-05-03T01:26:26;29.70;1.00
10864;DHT22;5485;37.558;126.950;2023-05-03T01:28:53;29.20;1.00
10864;DHT22;5485;37.558;126.950;2023-05-03T01:31:42;29.20;1.00
10864;DHT22;5485;37.558;126.950;2023-05-03T01:34:45;28.90;1.00
10864;DHT22;5485;37.558;126.950;2023-05-03T01:37:16;29.30;1.00
10864;DHT22;5485;37.558;126.950;2023-05-03T01:42:15;29.40;1.00
10864;DHT22;5485;37.558;126.950;2023-05-03T01:44:43;29.10;1.00
10864;DHT22;5485;37.558;126.950;2023-05-03T01:47:10;27.80;1.00
10864;DHT22;5485;37.558;126.950;2023-05-03T01:49:37;28.10;1.00
10864;DHT22;5485;37.558;126.950;2023-05-03T01:52:04;28.30;1.00
10864;DHT22;5485;37.558;126.950;2023-05-03T01:54:31;28.20;1.00
10864;DHT22;5485;37.558;126.950;2023-05-03T01:57:01;28.80;1.00
10864;DHT22;5485;37.558;126.950;2023-05-03T01:59:28;28.90;1.00
10864;DHT22;5485;37.558;126.950;2023-05-03T02:01:57;28.80;1.00
10864;DHT22;5485;37.558;126.950;2023-05-03T02:04:24;28.70;1.00
10864;DHT22;5485;37.558;126.950;2023-05-03T02:06:51;28.70;1.00
10864;DHT22;5485;37.558;126.950;2023-05-03T02:09:18;28.80;1.00
10864;DHT22;5485;37.558;126.950;2023-05-03T02:11:45;28.60;1.00
10864;DHT22;5485;37.558;126.950;2023-05-03T02:14:12;28.80;1.00
10864;DHT22;5485;37.558;126.950;2023-05-03T02:16:41;28.80;1.00
10864;DHT22;5485;37.558;126.950;2023-05-03T02:19:08;28.90;1.00
10864;DHT22;5485;37.558;126.950;2023-05-03T02:21:37;29.30;1.00
10864;DHT22;5485;37.558;126.950;2023-05-03T02:24:04;29.00;1.00
10864;DHT22;5485;37.558;126.950;2023-05-03T02:26:31;28.80;1.00
10864;DHT22;5485;37.558;126.950;2023-05-03T02:28:58;28.50;1.00
10864;DHT22;5485;37.558;126.950;2023-05-03T02:31:28;28.40;1.00
10864;DHT22;5485;37.558;126.950;2023-05-03T02:33:55;28.90;1.00
10864;DHT22;5485;37.558;126.950;2023-05-03T02:36:22;28.70;1.00
10864;DHT22;5485;37.558;126.950;2023-05-03T02:38:48;28.60;1.00
10864;DHT22;5485;37.558;126.950;2023-05-03T02:41:15;28.30;1.00
10864;DHT22;5485;37.558;126.950;2023-05-03T02:43:42;28.00;1.00
10864;DHT22;5485;37.558;126.950;2023-05-03T02:46:09;27.90;1.00
10864;DHT22;5485;37.558;126.950;2023-05-03T02:48:36;27.60;1.00
10864;DHT22;5485;37.558;126.950;2023-05-03T02:51:04;27.30;1.00
10864;DHT22;5485;37.558;126.950;2023-05-03T02:53:31;27.40;1.00
10864;DHT22;5485;37.558;126.950;2023-05-03T02:55:57;27.70;1.00
10864;DHT22;5485;37.558;126.950;2023-05-03T02:58:24;27.60;1.00
10864;DHT22;5485;37.558;126.950;2023-05-03T03:00:52;27.00;1.00
10864;DHT22;5485;37.558;126.950;2023-05-03T03:03:19;27.10;1.00
10864;DHT22;5485;37.558;126.950;2023-05-03T03:05:45;27.10;1.00
10864;DHT22;5485;37.558;126.950;2023-05-03T03:08:12;27.00;1.00
10864;DHT22;5485;37.558;126.950;2023-05-03T03:10:39;26.40;1.00
10864;DHT22;5485;37.558;126.950;2023-05-03T03:13:06;26.10;1.00
10864;DHT22;5485;37.558;126.950;2023-05-03T03:15:33;26.00;1.00
10864;DHT22;5485;37.558;126.950;2023-05-03T03:18:00;25.90;1.00
10864;DHT22;5485;37.558;126.950;2023-05-03T03:20:27;25.80;1.00
10864;DHT22;5485;37.558;126.950;2023-05-03T03:22:53;25.70;1.00
10864;DHT22;5485;37.558;126.950;2023-05-03T03:25:22;25.60;1.00
10864;DHT22;5485;37.558;126.950;2023-05-03T03:27:48;25.50;1.00
10864;DHT22;5485;37.558;126.950;2023-05-03T03:30:15;25.50;1.00
10864;DHT22;5485;37.558;126.950;2023-05-03T03:32:42;25.60;1.00
10864;DHT22;5485;37.558;126.950;2023-05-03T03:35:09;25.50;1.00
10864;DHT22;5485;37.558;126.950;2023-05-03T03:37:37;25.60;1.00
10864;DHT22;5485;37.558;126.950;2023-05-03T03:40:05;25.50;1.00
10864;DHT22;5485;37.558;126.950;2023-05-03T03:42:33;25.50;1.00
10864;DHT22;5485;37.558;126.950;2023-05-03T03:45:00;25.50;1.00
10864;DHT22;5485;37.558;126.950;2023-05-03T03:47:26;25.50;1.00
10864;DHT22;5485;37.558;126.950;2023-05-03T03:49:53;25.40;1.00
10864;DHT22;5485;37.558;126.950;2023-05-03T03:52:23;25.10;1.00
10864;DHT22;5485;37.558;126.950;2023-05-03T03:54:50;25.30;1.00
10864;DHT22;5485;37.558;126.950;2023-05-03T03:57:17;25.40;1.00
10864;DHT22;5485;37.558;126.950;2023-05-03T03:59:44;25.40;1.00
10864;DHT22;5485;37.558;126.950;2023-05-03T04:02:11;25.70;1.00
10864;DHT22;5485;37.558;126.950;2023-05-03T04:04:38;25.70;1.00
10864;DHT22;5485;37.558;126.950;2023-05-03T04:07:05;25.70;1.00
10864;DHT22;5485;37.558;126.950;2023-05-03T04:09:32;25.80;1.00
10864;DHT22;5485;37.558;126.950;2023-05-03T04:11:58;25.90;1.00
10864;DHT22;5485;37.558;126.950;2023-05-03T04:14:29;26.00;1.00
10864;DHT22;5485;37.558;126.950;2023-05-03T04:16:56;25.90;1.00
10864;DHT22;5485;37.558;126.950;2023-05-03T04:19:27;25.80;1.00
10864;DHT22;5485;37.558;126.950;2023-05-03T04:21:54;25.80;1.00
10864;DHT22;5485;37.558;126.950;2023-05-03T04:24:21;25.80;1.00
10864;DHT22;5485;37.558;126.950;2023-05-03T04:26:48;26.00;1.00
10864;DHT22;5485;37.558;126.950;2023-05-03T04:29:16;26.10;1.00
10864;DHT22;5485;37.558;126.950;2023-05-03T04:31:45;26.00;1.00
10864;DHT22;5485;37.558;126.950;2023-05-03T04:34:12;26.10;1.00
10864;DHT22;5485;37.558;126.950;2023-05-03T04:36:43;26.20;1.00
10864;DHT22;5485;37.558;126.950;2023-05-03T04:39:14;25.50;1.00
10864;DHT22;5485;37.558;126.950;2023-05-03T04:41:41;25.40;1.00
10864;DHT22;5485;37.558;126.950;2023-05-03T04:44:08;25.30;1.00
10864;DHT22;5485;37.558;126.950;2023-05-03T04:46:35;25.50;1.00
10864;DHT22;5485;37.558;126.950;2023-05-03T04:49:01;25.70;1.00
10864;DHT22;5485;37.558;126.950;2023-05-03T04:51:28;25.80;1.00
10864;DHT22;5485;37.558;126.950;2023-05-03T04:53:58;26.00;1.00
10864;DHT22;5485;37.558;126.950;2023-05-03T04:56:25;26.00;1.00
10864;DHT22;5485;37.558;126.950;2023-05-03T04:58:53;26.20;1.00
10864;DHT22;5485;37.558;126.950;2023-05-03T05:01:22;25.60;1.00
10864;DHT22;5485;37.558;126.950;2023-05-03T05:03:53;25.60;1.00
10864;DHT22;5485;37.558;126.950;2023-05-03T05:06:20;25.80;1.00
10864;DHT22;5485;37.558;126.950;2023-05-03T05:08:47;26.00;1.00
10864;DHT22;5485;37.558;126.950;2023-05-03T05:11:14;26.10;1.00
10864;DHT22;5485;37.558;126.950;2023-05-03T05:13:41;26.20;1.00
10864;DHT22;5485;37.558;126.950;2023-05-03T05:16:08;25.90;1.00
10864;DHT22;5485;37.558;126.950;2023-05-03T05:18:35;25.80;1.00
10864;DHT22;5485;37.558;126.950;2023-05-03T05:21:01;26.10;1.00
10864;DHT22;5485;37.558;126.950;2023-05-03T05:23:28;26.00;1.00
10864;DHT22;5485;37.558;126.950;2023-05-03T05:25:55;25.90;1.00
10864;DHT22;5485;37.558;126.950;2023-05-03T05:28:26;25.90;1.00
10864;DHT22;5485;37.558;126.950;2023-05-03T05:30:53;25.90;1.00
10864;DHT22;5485;37.558;126.950;2023-05-03T05:33:21;26.00;1.00
10864;DHT22;5485;37.558;126.950;2023-05-03T05:35:47;26.00;1.00
10864;DHT22;5485;37.558;126.950;2023-05-03T05:38:17;26.20;1.00
10864;DHT22;5485;37.558;126.950;2023-05-03T05:40:44;26.20;1.00
10864;DHT22;5485;37.558;126.950;2023-05-03T05:43:11;26.20;1.00
10864;DHT22;5485;37.558;126.950;2023-05-03T05:45:38;26.20;1.00
10864;DHT22;5485;37.558;126.950;2023-05-03T05:48:05;26.10;1.00
10864;DHT22;5485;37.558;126.950;2023-05-03T05:50:33;25.90;1.00
10864;DHT22;5485;37.558;126.950;2023-05-03T05:53:00;25.90;1.00
10864;DHT22;5485;37.558;126.950;2023-05-03T05:55:27;26.10;1.00
10864;DHT22;5485;37.558;126.950;2023-05-03T05:57:56;26.10;1.00
10864;DHT22;5485;37.558;126.950;2023-05-03T06:00:23;25.90;1.00
10864;DHT22;5485;37.558;126.950;2023-05-03T06:02:50;25.90;1.00
10864;DHT22;5485;37.558;126.950;2023-05-03T06:05:17;26.00;1.00
10864;DHT22;5485;37.558;126.950;2023-05-03T06:07:44;25.70;1.00
10864;DHT22;5485;37.558;126.950;2023-05-03T06:10:11;25.80;1.00
10864;DHT22;5485;37.558;126.950;2023-05-03T06:12:38;26.10;1.00
10864;DHT22;5485;37.558;126.950;2023-05-03T06:15:06;26.30;1.00
10864;DHT22;5485;37.558;126.950;2023-05-03T06:17:33;26.40;1.00
10864;DHT22;5485;37.558;126.950;2023-05-03T06:20:01;26.30;1.00
10864;DHT22;5485;37.558;126.950;2023-05-03T06:22:28;25.90;1.00
10864;DHT22;5485;37.558;126.950;2023-05-03T06:24:55;25.90;1.00
10864;DHT22;5485;37.558;126.950;2023-05-03T06:27:22;26.00;1.00
10864;DHT22;5485;37.558;126.950;2023-05-03T06:29:49;25.70;1.00
10864;DHT22;5485;37.558;126.950;2023-05-03T06:32:18;25.50;1.00
10864;DHT22;5485;37.558;126.950;2023-05-03T06:34:50;25.30;1.00
10864;DHT22;5485;37.558;126.950;2023-05-03T06:37:18;25.20;1.00
10864;DHT22;5485;37.558;126.950;2023-05-03T06:39:46;25.00;1.00
10864;DHT22;5485;37.558;126.950;2023-05-03T06:42:15;25.10;1.00
10864;DHT22;5485;37.558;126.950;2023-05-03T06:44:42;25.30;1.00
10864;DHT22;5485;37.558;126.950;2023-05-03T06:47:13;25.50;1.00
10864;DHT22;5485;37.558;126.950;2023-05-03T06:49:40;25.50;1.00
10864;DHT22;5485;37.558;126.950;2023-05-03T06:52:07;25.70;1.00
10864;DHT22;5485;37.558;126.950;2023-05-03T06:54:34;25.60;1.00
10864;DHT22;5485;37.558;126.950;2023-05-03T06:57:01;25.60;1.00
10864;DHT22;5485;37.558;126.950;2023-05-03T06:59:29;25.60;1.00
10864;DHT22;5485;37.558;126.950;2023-05-03T07:01:56;25.70;1.00
10864;DHT22;5485;37.558;126.950;2023-05-03T07:04:25;25.70;1.00
10864;DHT22;5485;37.558;126.950;2023-05-03T07:06:52;25.70;1.00
10864;DHT22;5485;37.558;126.950;2023-05-03T07:09:19;25.40;1.00
10864;DHT22;5485;37.558;126.950;2023-05-03T07:11:46;25.40;1.00
10864;DHT22;5485;37.558;126.950;2023-05-03T07:14:15;25.40;1.00
10864;DHT22;5485;37.558;126.950;2023-05-03T07:16:43;25.00;1.00
10864;DHT22;5485;37.558;126.950;2023-05-03T07:19:10;24.90;1.00
10864;DHT22;5485;37.558;126.950;2023-05-03T07:21:37;24.80;1.00
10864;DHT22;5485;37.558;126.950;2023-05-03T07:24:04;24.70;1.00
10864;DHT22;5485;37.558;126.950;2023-05-03T07:26:33;24.60;1.00
10864;DHT22;5485;37.558;126.950;2023-05-03T07:29:00;24.40;1.00
10864;DHT22;5485;37.558;126.950;2023-05-03T07:31:29;24.30;1.00
10864;DHT22;5485;37.558;126.950;2023-05-03T07:33:57;24.30;1.00
10864;DHT22;5485;37.558;126.950;2023-05-03T07:36:27;24.40;1.00
10864;DHT22;5485;37.558;126.950;2023-05-03T07:38:54;24.40;1.00
10864;DHT22;5485;37.558;126.950;2023-05-03T07:41:21;24.30;1.00
10864;DHT22;5485;37.558;126.950;2023-05-03T07:43:47;24.40;1.00
10864;DHT22;5485;37.558;126.950;2023-05-03T07:46:14;24.30;1.00
10864;DHT22;5485;37.558;126.950;2023-05-03T07:48:41;24.30;1.00
10864;DHT22;5485;37.558;126.950;2023-05-03T07:51:08;24.30;1.00
10864;DHT22;5485;37.558;126.950;2023-05-03T07:53:35;24.30;1.00
10864;DHT22;5485;37.558;126.950;2023-05-03T07:56:08;24.10;1.00
10864;DHT22;5485;37.558;126.950;2023-05-03T07:58:35;24.10;1.00
10864;DHT22;5485;37.558;126.950;2023-05-03T08:01:02;24.10;1.00
10864;DHT22;5485;37.558;126.950;2023-05-03T08:03:29;24.10;1.00
10864;DHT22;5485;37.558;126.950;2023-05-03T08:05:55;23.90;1.00
10864;DHT22;5485;37.558;126.950;2023-05-03T08:08:22;24.00;1.00
10864;DHT22;5485;37.558;126.950;2023-05-03T08:10:51;23.90;1.00
10864;DHT22;5485;37.558;126.950;2023-05-03T08:13:18;23.80;1.00
10864;DHT22;5485;37.558;126.950;2023-05-03T08:15:48;23.70;1.00
10864;DHT22;5485;37.558;126.950;2023-05-03T08:18:15;23.70;1.00
10864;DHT22;5485;37.558;126.950;2023-05-03T08:20:41;23.80;1.00
10864;DHT22;5485;37.558;126.950;2023-05-03T08:23:09;23.80;1.00
10864;DHT22;5485;37.558;126.950;2023-05-03T08:25:36;23.70;1.00
10864;DHT22;5485;37.558;126.950;2023-05-03T08:28:03;23.70;1.00
10864;DHT22;5485;37.558;126.950;2023-05-03T08:30:30;23.70;1.00
10864;DHT22;5485;37.558;126.950;2023-05-03T08:32:57;23.70;1.00
10864;DHT22;5485;37.558;126.950;2023-05-03T08:35:24;23.70;1.00
10864;DHT22;5485;37.558;126.950;2023-05-03T08:37:53;23.60;1.00
10864;DHT22;5485;37.558;126.950;2023-05-03T08:40:27;23.60;1.00
10864;DHT22;5485;37.558;126.950;2023-05-03T08:42:55;23.70;1.00
10864;DHT22;5485;37.558;126.950;2023-05-03T08:45:25;23.50;1.00
10864;DHT22;5485;37.558;126.950;2023-05-03T08:47:55;23.20;1.00
10864;DHT22;5485;37.558;126.950;2023-05-03T08:50:23;22.90;1.00
10864;DHT22;5485;37.558;126.950;2023-05-03T08:52:51;22.80;1.00
10864;DHT22;5485;37.558;126.950;2023-05-03T08:55:18;22.60;1.00
10864;DHT22;5485;37.558;126.950;2023-05-03T08:57:45;22.50;1.00
10864;DHT22;5485;37.558;126.950;2023-05-03T09:00:12;22.60;1.00
10864;DHT22;5485;37.558;126.950;2023-05-03T09:02:39;22.50;1.00
10864;DHT22;5485;37.558;126.950;2023-05-03T09:08:01;22.40;1.00
10864;DHT22;5485;37.558;126.950;2023-05-03T09:10:32;22.20;1.00
10864;DHT22;5485;37.558;126.950;2023-05-03T09:13:01;22.10;1.00
10864;DHT22;5485;37.558;126.950;2023-05-03T09:15:29;22.10;1.00
10864;DHT22;5485;37.558;126.950;2023-05-03T09:18:15;22.00;1.00
10864;DHT22;5485;37.558;126.950;2023-05-03T09:20:45;22.00;1.00
10864;DHT22;5485;37.558;126.950;2023-05-03T09:25:48;21.90;1.00
10864;DHT22;5485;37.558;126.950;2023-05-03T09:28:17;21.80;1.00
10864;DHT22;5485;37.558;126.950;2023-05-03T09:30:46;21.70;1.00
10864;DHT22;5485;37.558;126.950;2023-05-03T09:33:13;21.60;1.00
10864;DHT22;5485;37.558;126.950;2023-05-03T09:38:32;21.50;1.00
10864;DHT22;5485;37.558;126.950;2023-05-03T09:41:00;21.50;1.00
10864;DHT22;5485;37.558;126.950;2023-05-03T09:43:28;21.40;1.00
10864;DHT22;5485;37.558;126.950;2023-05-03T09:46:16;21.20;1.00
10864;DHT22;5485;37.558;126.950;2023-05-03T09:48:45;21.20;1.00
10864;DHT22;5485;37.558;126.950;2023-05-03T09:51:12;21.20;1.00
10864;DHT22;5485;37.558;126.950;2023-05-03T09:53:39;21.10;1.00
10864;DHT22;5485;37.558;126.950;2023-05-03T09:56:10;20.90;1.00
10864;DHT22;5485;37.558;126.950;2023-05-03T09:58:41;20.90;1.00
10864;DHT22;5485;37.558;126.950;2023-05-03T10:01:09;20.90;1.00
10864;DHT22;5485;37.558;126.950;2023-05-03T10:03:43;20.80;1.00
10864;DHT22;5485;37.558;126.950;2023-05-03T10:06:24;20.80;1.00
10864;DHT22;5485;37.558;126.950;2023-05-03T10:09:11;20.80;1.00
10864;DHT22;5485;37.558;126.950;2023-05-03T10:11:49;20.70;1.00
10864;DHT22;5485;37.558;126.950;2023-05-03T10:14:17;20.70;1.00
10864;DHT22;5485;37.558;126.950;2023-05-03T10:16:51;20.70;1.00
10864;DHT22;5485;37.558;126.950;2023-05-03T10:22:22;20.70;1.00
10864;DHT22;5485;37.558;126.950;2023-05-03T10:27:50;20.70;1.00
10864;DHT22;5485;37.558;126.950;2023-05-03T10:30:28;20.60;1.00
10864;DHT22;5485;37.558;126.950;2023-05-03T10:32:58;20.60;1.00
10864;DHT22;5485;37.558;126.950;2023-05-03T10:35:31;20.60;1.00
10864;DHT22;5485;37.558;126.950;2023-05-03T10:37:58;20.50;1.00
10864;DHT22;5485;37.558;126.950;2023-05-03T10:40:43;20.50;1.00
10864;DHT22;5485;37.558;126.950;2023-05-03T10:46:04;20.50;1.00
10864;DHT22;5485;37.558;126.950;2023-05-03T10:48:32;20.50;1.00
10864;DHT22;5485;37.558;126.950;2023-05-03T10:51:33;20.40;1.00
10864;DHT22;5485;37.558;126.950;2023-05-03T10:54:02;20.40;1.00
10864;DHT22;5485;37.558;126.950;2023-05-03T10:56:29;20.30;1.00
10864;DHT22;5485;37.558;126.950;2023-05-03T10:58:56;20.30;1.00
10864;DHT22;5485;37.558;126.950;2023-05-03T11:01:25;20.30;1.00
10864;DHT22;5485;37.558;126.950;2023-05-03T11:04:09;20.30;1.00
10864;DHT22;5485;37.558;126.950;2023-05-03T11:06:39;20.30;1.00
10864;DHT22;5485;37.558;126.950;2023-05-03T11:09:11;20.30;1.00
10864;DHT22;5485;37.558;126.950;2023-05-03T11:11:41;20.30;1.00
10864;DHT22;5485;37.558;126.950;2023-05-03T11:14:09;20.30;1.00
10864;DHT22;5485;37.558;126.950;2023-05-03T11:16:38;20.30;1.00
10864;DHT22;5485;37.558;126.950;2023-05-03T11:19:13;20.20;1.00
10864;DHT22;5485;37.558;126.950;2023-05-03T11:21:40;20.20;1.00
10864;DHT22;5485;37.558;126.950;2023-05-03T11:24:10;20.20;1.00
10864;DHT22;5485;37.558;126.950;2023-05-03T11:26:38;20.20;1.00
10864;DHT22;5485;37.558;126.950;2023-05-03T11:29:05;20.10;1.00
10864;DHT22;5485;37.558;126.950;2023-05-03T11:31:35;20.10;1.00
10864;DHT22;5485;37.558;126.950;2023-05-03T11:34:02;20.00;1.00
10864;DHT22;5485;37.558;126.950;2023-05-03T11:36:29;20.00;1.00
10864;DHT22;5485;37.558;126.950;2023-05-03T11:38:56;19.90;1.00
10864;DHT22;5485;37.558;126.950;2023-05-03T11:41:23;19.90;1.00
10864;DHT22;5485;37.558;126.950;2023-05-03T11:43:50;19.80;1.00
10864;DHT22;5485;37.558;126.950;2023-05-03T11:46:22;19.70;1.00
10864;DHT22;5485;37.558;126.950;2023-05-03T11:48:51;19.70;1.00
10864;DHT22;5485;37.558;126.950;2023-05-03T11:51:24;19.70;1.00
10864;DHT22;5485;37.558;126.950;2023-05-03T11:53:53;19.60;1.00
10864;DHT22;5485;37.558;126.950;2023-05-03T11:56:20;19.60;1.00
10864;DHT22;5485;37.558;126.950;2023-05-03T11:58:53;19.60;1.00
10864;DHT22;5485;37.558;126.950;2023-05-03T12:01:23;19.60;1.00
10864;DHT22;5485;37.558;126.950;2023-05-03T12:03:59;19.50;1.00
10864;DHT22;5485;37.558;126.950;2023-05-03T12:06:31;19.50;1.00
10864;DHT22;5485;37.558;126.950;2023-05-03T12:09:02;19.50;1.00
10864;DHT22;5485;37.558;126.950;2023-05-03T12:11:29;19.50;1.00
10864;DHT22;5485;37.558;126.950;2023-05-03T12:13:59;19.40;1.00
10864;DHT22;5485;37.558;126.950;2023-05-03T12:16:28;19.40;1.00
10864;DHT22;5485;37.558;126.950;2023-05-03T12:19:11;19.40;1.00
10864;DHT22;5485;37.558;126.950;2023-05-03T12:21:46;19.30;1.00
10864;DHT22;5485;37.558;126.950;2023-05-03T12:24:15;19.30;1.00
10864;DHT22;5485;37.558;126.950;2023-05-03T12:26:50;19.30;1.00
10864;DHT22;5485;37.558;126.950;2023-05-03T12:29:17;19.20;1.00
10864;DHT22;5485;37.558;126.950;2023-05-03T12:31:45;19.20;1.00
10864;DHT22;5485;37.558;126.950;2023-05-03T12:34:12;19.20;1.00
10864;DHT22;5485;37.558;126.950;2023-05-03T12:36:39;19.20;1.00
10864;DHT22;5485;37.558;126.950;2023-05-03T12:39:07;19.20;1.00
10864;DHT22;5485;37.558;126.950;2023-05-03T12:41:36;19.10;1.00
10864;DHT22;5485;37.558;126.950;2023-05-03T12:44:02;19.10;1.00
10864;DHT22;5485;37.558;126.950;2023-05-03T12:46:29;19.00;1.00
10864;DHT22;5485;37.558;126.950;2023-05-03T12:48:57;19.10;1.00
10864;DHT22;5485;37.558;126.950;2023-05-03T12:51:24;19.10;1.00
10864;DHT22;5485;37.558;126.950;2023-05-03T12:53:52;19.00;1.00
10864;DHT22;5485;37.558;126.950;2023-05-03T12:56:19;19.00;1.00
10864;DHT22;5485;37.558;126.950;2023-05-03T12:58:46;18.90;1.00
10864;DHT22;5485;37.558;126.950;2023-05-03T13:01:15;18.90;1.00
10864;DHT22;5485;37.558;126.950;2023-05-03T13:03:43;18.90;1.00
10864;DHT22;5485;37.558;126.950;2023-05-03T13:06:10;19.00;1.00
10864;DHT22;5485;37.558;126.950;2023-05-03T13:08:37;18.90;1.00
10864;DHT22;5485;37.558;126.950;2023-05-03T13:11:03;18.90;1.00
10864;DHT22;5485;37.558;126.950;2023-05-03T13:13:38;18.90;1.00
10864;DHT22;5485;37.558;126.950;2023-05-03T13:16:05;18.80;1.00
10864;DHT22;5485;37.558;126.950;2023-05-03T13:18:33;18.80;1.00
10864;DHT22;5485;37.558;126.950;2023-05-03T13:21:00;18.70;1.00
10864;DHT22;5485;37.558;126.950;2023-05-03T13:23:27;18.80;1.00
10864;DHT22;5485;37.558;126.950;2023-05-03T13:25:54;18.80;1.00
10864;DHT22;5485;37.558;126.950;2023-05-03T13:28:22;18.80;1.00
10864;DHT22;5485;37.558;126.950;2023-05-03T13:30:50;18.70;1.00
10864;DHT22;5485;37.558;126.950;2023-05-03T13:33:17;18.70;1.00
10864;DHT22;5485;37.558;126.950;2023-05-03T13:35:45;18.70;1.00
10864;DHT22;5485;37.558;126.950;2023-05-03T13:38:12;18.70;1.00
10864;DHT22;5485;37.558;126.950;2023-05-03T13:40:41;18.60;1.00
10864;DHT22;5485;37.558;126.950;2023-05-03T13:43:08;18.50;1.00
10864;DHT22;5485;37.558;126.950;2023-05-03T13:45:35;18.50;1.00
10864;DHT22;5485;37.558;126.950;2023-05-03T13:48:02;18.50;1.00
10864;DHT22;5485;37.558;126.950;2023-05-03T13:50:29;18.50;1.00
10864;DHT22;5485;37.558;126.950;2023-05-03T13:52:57;18.50;1.00
10864;DHT22;5485;37.558;126.950;2023-05-03T13:55:24;18.50;1.00
10864;DHT22;5485;37.558;126.950;2023-05-03T13:57:51;18.50;1.00
10864;DHT22;5485;37.558;126.950;2023-05-03T14:00:19;18.40;1.00
10864;DHT22;5485;37.558;126.950;2023-05-03T14:02:48;18.40;1.00
10864;DHT22;5485;37.558;126.950;2023-05-03T14:05:16;18.40;1.00
10864;DHT22;5485;37.558;126.950;2023-05-03T14:07:47;18.40;1.00
10864;DHT22;5485;37.558;126.950;2023-05-03T14:10:17;18.40;1.00
10864;DHT22;5485;37.558;126.950;2023-05-03T14:12:44;18.40;1.00
10864;DHT22;5485;37.558;126.950;2023-05-03T14:15:12;18.40;1.00
10864;DHT22;5485;37.558;126.950;2023-05-03T14:17:40;18.40;1.00
10864;DHT22;5485;37.558;126.950;2023-05-03T14:20:09;18.40;1.00
10864;DHT22;5485;37.558;126.950;2023-05-03T14:22:37;18.40;1.00
10864;DHT22;5485;37.558;126.950;2023-05-03T14:25:04;18.30;1.00
10864;DHT22;5485;37.558;126.950;2023-05-03T14:27:31;18.30;1.00
10864;DHT22;5485;37.558;126.950;2023-05-03T14:29:58;18.30;1.00
10864;DHT22;5485;37.558;126.950;2023-05-03T14:32:25;18.20;1.00
10864;DHT22;5485;37.558;126.950;2023-05-03T14:34:53;18.20;1.00
10864;DHT22;5485;37.558;126.950;2023-05-03T14:37:22;18.20;1.00
10864;DHT22;5485;37.558;126.950;2023-05-03T14:39:49;18.20;1.00
10864;DHT22;5485;37.558;126.950;2023-05-03T14:42:17;18.10;1.00
10864;DHT22;5485;37.558;126.950;2023-05-03T14:44:43;18.20;1.00
10864;DHT22;5485;37.558;126.950;2023-05-03T14:47:10;18.20;1.00
10864;DHT22;5485;37.558;126.950;2023-05-03T14:49:37;18.10;1.00
10864;DHT22;5485;37.558;126.950;2023-05-03T14:52:07;18.20;1.00
10864;DHT22;5485;37.558;126.950;2023-05-03T14:54:35;18.20;1.00
10864;DHT22;5485;37.558;126.950;2023-05-03T14:57:03;18.10;1.00
10864;DHT22;5485;37.558;126.950;2023-05-03T14:59:34;18.20;1.00
10864;DHT22;5485;37.558;126.950;2023-05-03T15:02:01;18.10;1.00
10864;DHT22;5485;37.558;126.950;2023-05-03T15:04:28;18.20;1.00
10864;DHT22;5485;37.558;126.950;2023-05-03T15:06:59;18.20;1.00
10864;DHT22;5485;37.558;126.950;2023-05-03T15:09:31;18.20;1.00
10864;DHT22;5485;37.558;126.950;2023-05-03T15:11:59;18.20;1.00
10864;DHT22;5485;37.558;126.950;2023-05-03T15:14:27;18.20;1.00
10864;DHT22;5485;37.558;126.950;2023-05-03T15:16:54;18.20;1.00
10864;DHT22;5485;37.558;126.950;2023-05-03T15:19:21;18.30;1.00
10864;DHT22;5485;37.558;126.950;2023-05-03T15:21:51;18.30;1.00
10864;DHT22;5485;37.558;126.950;2023-05-03T15:24:18;18.30;1.00
10864;DHT22;5485;37.558;126.950;2023-05-03T15:26:47;18.40;1.00
10864;DHT22;5485;37.558;126.950;2023-05-03T15:29:13;18.40;1.00
10864;DHT22;5485;37.558;126.950;2023-05-03T15:31:41;18.40;1.00
10864;DHT22;5485;37.558;126.950;2023-05-03T15:34:08;18.40;1.00
10864;DHT22;5485;37.558;126.950;2023-05-03T15:36:39;18.40;1.00
10864;DHT22;5485;37.558;126.950;2023-05-03T15:39:06;18.40;1.00
10864;DHT22;5485;37.558;126.950;2023-05-03T15:41:34;18.40;1.00
10864;DHT22;5485;37.558;126.950;2023-05-03T15:44:01;18.40;1.00
10864;DHT22;5485;37.558;126.950;2023-05-03T15:46:31;18.40;1.00
10864;DHT22;5485;37.558;126.950;2023-05-03T15:48:59;18.40;1.00
10864;DHT22;5485;37.558;126.950;2023-05-03T15:51:26;18.40;2.70
10864;DHT22;5485;37.558;126.950;2023-05-03T15:53:53;18.30;3.80
10864;DHT22;5485;37.558;126.950;2023-05-03T15:56:20;18.30;6.10
10864;DHT22;5485;37.558;126.950;2023-05-03T15:58:47;18.30;10.40
10864;DHT22;5485;37.558;126.950;2023-05-03T16:01:17;18.30;10.30
10864;DHT22;5485;37.558;126.950;2023-05-03T16:03:44;18.30;13.80